sensor_id;sensor_type;location;lat;lon;timestamp;P1;durP1;ratioP1;P2;durP2;ratioP2
64335;SDS011;50672;53.362;-6.240;2022-12-19T00:01:33;10.00;;;3.27;;
64335;SDS011;50672;53.362;-6.240;2022-12-19T00:04:03;8.70;;;3.40;;
64335;SDS011;50672;53.362;-6.240;2022-12-19T00:06:34;9.25;;;2.78;;
64335;SDS011;50672;53.362;-6.240;2022-12-19T00:09:02;13.70;;;2.83;;
64335;SDS011;50672;53.362;-6.240;2022-12-19T00:11:30;8.50;;;2.17;;
64335;SDS011;50672;53.362;-6.240;2022-12-19T00:13:58;11.07;;;2.60;;
64335;SDS011;50672;53.362;-6.240;2022-12-19T00:16:26;8.03;;;2.00;;
64335;SDS011;50672;53.362;-6.240;2022-12-19T00:18:55;11.03;;;3.90;;
64335;SDS011;50672;53.362;-6.240;2022-12-19T00:23:57;16.43;;;3.20;;
64335;SDS011;50672;53.362;-6.240;2022-12-19T00:26:30;10.47;;;3.07;;
64335;SDS011;50672;53.362;-6.240;2022-12-19T00:29:00;12.67;;;4.07;;
64335;SDS011;50672;53.362;-6.240;2022-12-19T00:31:28;9.07;;;2.60;;
64335;SDS011;50672;53.362;-6.240;2022-12-19T00:33:57;8.03;;;3.00;;
64335;SDS011;50672;53.362;-6.240;2022-12-19T00:36:28;16.37;;;4.20;;
64335;SDS011;50672;53.362;-6.240;2022-12-19T00:38:57;10.73;;;2.80;;
64335;SDS011;50672;53.362;-6.240;2022-12-19T00:41:26;12.23;;;3.07;;
64335;SDS011;50672;53.362;-6.240;2022-12-19T00:43:56;13.93;;;2.87;;
64335;SDS011;50672;53.362;-6.240;2022-12-19T00:46:24;13.07;;;2.77;;
64335;SDS011;50672;53.362;-6.240;2022-12-19T00:48:52;16.03;;;4.33;;
64335;SDS011;50672;53.362;-6.240;2022-12-19T00:51:21;15.00;;;4.53;;
64335;SDS011;50672;53.362;-6.240;2022-12-19T00:53:50;16.37;;;4.73;;
64335;SDS011;50672;53.362;-6.240;2022-12-19T00:56:20;16.90;;;5.00;;
64335;SDS011;50672;53.362;-6.240;2022-12-19T00:58:48;12.03;;;3.10;;
64335;SDS011;50672;53.362;-6.240;2022-12-19T01:01:20;14.23;;;3.60;;
64335;SDS011;50672;53.362;-6.240;2022-12-19T01:06:35;16.73;;;2.80;;
64335;SDS011;50672;53.362;-6.240;2022-12-19T01:09:02;16.70;;;2.73;;
64335;SDS011;50672;53.362;-6.240;2022-12-19T01:11:28;12.03;;;3.43;;
64335;SDS011;50672;53.362;-6.240;2022-12-19T01:14:14;16.13;;;3.23;;
64335;SDS011;50672;53.362;-6.240;2022-12-19T01:16:48;13.00;;;3.00;;
64335;SDS011;50672;53.362;-6.240;2022-12-19T01:19:15;10.13;;;2.37;;
64335;SDS011;50672;53.362;-6.240;2022-12-19T01:21:42;15.73;;;3.00;;
64335;SDS011;50672;53.362;-6.240;2022-12-19T01:24:09;12.93;;;3.37;;
64335;SDS011;50672;53.362;-6.240;2022-12-19T01:26:36;17.00;;;3.93;;
64335;SDS011;50672;53.362;-6.240;2022-12-19T01:29:03;13.13;;;2.77;;
64335;SDS011;50672;53.362;-6.240;2022-12-19T01:31:31;12.17;;;2.90;;
64335;SDS011;50672;53.362;-6.240;2022-12-19T01:33:59;11.80;;;2.73;;
64335;SDS011;50672;53.362;-6.240;2022-12-19T01:36:26;10.67;;;2.37;;
64335;SDS011;50672;53.362;-6.240;2022-12-19T01:38:54;8.47;;;2.60;;
64335;SDS011;50672;53.362;-6.240;2022-12-19T01:41:22;10.67;;;2.57;;
64335;SDS011;50672;53.362;-6.240;2022-12-19T01:43:54;16.00;;;2.50;;
64335;SDS011;50672;53.362;-6.240;2022-12-19T01:46:32;11.43;;;2.50;;
64335;SDS011;50672;53.362;-6.240;2022-12-19T01:49:05;16.80;;;3.40;;
64335;SDS011;50672;53.362;-6.240;2022-12-19T01:51:43;12.70;;;2.53;;
64335;SDS011;50672;53.362;-6.240;2022-12-19T01:54:16;12.10;;;2.03;;
64335;SDS011;50672;53.362;-6.240;2022-12-19T01:56:48;7.80;;;2.13;;
64335;SDS011;50672;53.362;-6.240;2022-12-19T01:59:18;13.07;;;2.73;;
64335;SDS011;50672;53.362;-6.240;2022-12-19T02:01:53;15.47;;;2.77;;
64335;SDS011;50672;53.362;-6.240;2022-12-19T02:04:25;15.00;;;2.95;;
64335;SDS011;50672;53.362;-6.240;2022-12-19T02:06:57;11.43;;;3.10;;
64335;SDS011;50672;53.362;-6.240;2022-12-19T02:09:41;14.00;;;3.67;;
64335;SDS011;50672;53.362;-6.240;2022-12-19T02:12:10;14.00;;;4.00;;
64335;SDS011;50672;53.362;-6.240;2022-12-19T02:14:38;14.73;;;4.10;;
64335;SDS011;50672;53.362;-6.240;2022-12-19T02:17:17;17.47;;;3.30;;
64335;SDS011;50672;53.362;-6.240;2022-12-19T02:31:34;17.33;;;3.73;;
64335;SDS011;50672;53.362;-6.240;2022-12-19T02:34:20;20.53;;;4.70;;
64335;SDS011;50672;53.362;-6.240;2022-12-19T02:36:57;17.57;;;3.90;;
64335;SDS011;50672;53.362;-6.240;2022-12-19T02:39:49;12.80;;;3.13;;
64335;SDS011;50672;53.362;-6.240;2022-12-19T02:42:23;16.92;;;3.92;;
64335;SDS011;50672;53.362;-6.240;2022-12-19T02:45:00;17.13;;;3.20;;
64335;SDS011;50672;53.362;-6.240;2022-12-19T02:47:31;19.40;;;3.33;;
64335;SDS011;50672;53.362;-6.240;2022-12-19T02:49:58;15.87;;;4.03;;
64335;SDS011;50672;53.362;-6.240;2022-12-19T02:54:52;15.70;;;3.20;;
64335;SDS011;50672;53.362;-6.240;2022-12-19T02:57:37;16.20;;;2.40;;
64335;SDS011;50672;53.362;-6.240;2022-12-19T03:00:07;15.50;;;2.53;;
64335;SDS011;50672;53.362;-6.240;2022-12-19T03:11:22;17.90;;;3.23;;
64335;SDS011;50672;53.362;-6.240;2022-12-19T03:14:01;13.30;;;2.50;;
64335;SDS011;50672;53.362;-6.240;2022-12-19T03:16:35;8.53;;;2.67;;
64335;SDS011;50672;53.362;-6.240;2022-12-19T03:19:04;12.07;;;3.70;;
64335;SDS011;50672;53.362;-6.240;2022-12-19T03:21:36;10.27;;;2.35;;
64335;SDS011;50672;53.362;-6.240;2022-12-19T03:24:06;12.17;;;2.30;;
64335;SDS011;50672;53.362;-6.240;2022-12-19T03:26:45;13.90;;;2.33;;
64335;SDS011;50672;53.362;-6.240;2022-12-19T03:29:27;10.43;;;2.77;;
64335;SDS011;50672;53.362;-6.240;2022-12-19T03:31:58;15.40;;;3.63;;
64335;SDS011;50672;53.362;-6.240;2022-12-19T03:34:33;14.20;;;1.93;;
64335;SDS011;50672;53.362;-6.240;2022-12-19T03:37:04;8.60;;;1.90;;
64335;SDS011;50672;53.362;-6.240;2022-12-19T03:39:36;12.15;;;2.17;;
64335;SDS011;50672;53.362;-6.240;2022-12-19T03:42:06;12.67;;;3.73;;
64335;SDS011;50672;53.362;-6.240;2022-12-19T03:44:54;14.53;;;1.93;;
64335;SDS011;50672;53.362;-6.240;2022-12-19T03:47:27;13.70;;;2.10;;
64335;SDS011;50672;53.362;-6.240;2022-12-19T03:50:00;16.77;;;2.60;;
64335;SDS011;50672;53.362;-6.240;2022-12-19T03:52:44;18.53;;;3.77;;
64335;SDS011;50672;53.362;-6.240;2022-12-19T03:55:34;17.23;;;2.97;;
64335;SDS011;50672;53.362;-6.240;2022-12-19T03:58:10;19.67;;;3.90;;
64335;SDS011;50672;53.362;-6.240;2022-12-19T04:00:43;15.97;;;3.13;;
64335;SDS011;50672;53.362;-6.240;2022-12-19T04:03:15;21.63;;;3.70;;
64335;SDS011;50672;53.362;-6.240;2022-12-19T04:05:44;19.40;;;3.93;;
64335;SDS011;50672;53.362;-6.240;2022-12-19T04:08:15;11.18;;;2.85;;
64335;SDS011;50672;53.362;-6.240;2022-12-19T04:10:46;10.03;;;2.83;;
64335;SDS011;50672;53.362;-6.240;2022-12-19T04:13:18;12.90;;;3.27;;
64335;SDS011;50672;53.362;-6.240;2022-12-19T04:18:29;10.30;;;2.70;;
64335;SDS011;50672;53.362;-6.240;2022-12-19T04:21:05;14.40;;;2.70;;
64335;SDS011;50672;53.362;-6.240;2022-12-19T04:23:42;10.07;;;1.83;;
64335;SDS011;50672;53.362;-6.240;2022-12-19T04:26:14;7.17;;;1.40;;
64335;SDS011;50672;53.362;-6.240;2022-12-19T04:28:49;3.57;;;0.77;;
64335;SDS011;50672;53.362;-6.240;2022-12-19T04:31:23;6.90;;;1.30;;
64335;SDS011;50672;53.362;-6.240;2022-12-19T04:33:50;4.90;;;1.30;;
64335;SDS011;50672;53.362;-6.240;2022-12-19T04:36:17;4.43;;;1.27;;
64335;SDS011;50672;53.362;-6.240;2022-12-19T04:38:44;4.90;;;1.50;;
64335;SDS011;50672;53.362;-6.240;2022-12-19T04:41:10;4.80;;;1.30;;
64335;SDS011;50672;53.362;-6.240;2022-12-19T04:43:37;12.80;;;1.83;;
64335;SDS011;50672;53.362;-6.240;2022-12-19T04:46:04;3.77;;;1.37;;
64335;SDS011;50672;53.362;-6.240;2022-12-19T04:48:33;6.90;;;1.60;;
64335;SDS011;50672;53.362;-6.240;2022-12-19T04:51:01;7.73;;;0.93;;
64335;SDS011;50672;53.362;-6.240;2022-12-19T04:53:27;6.53;;;2.70;;
64335;SDS011;50672;53.362;-6.240;2022-12-19T04:56:00;12.33;;;2.97;;
64335;SDS011;50672;53.362;-6.240;2022-12-19T04:58:28;22.07;;;7.07;;
64335;SDS011;50672;53.362;-6.240;2022-12-19T05:00:59;17.73;;;4.23;;
64335;SDS011;50672;53.362;-6.240;2022-12-19T05:03:37;14.30;;;2.80;;
64335;SDS011;50672;53.362;-6.240;2022-12-19T05:08:35;15.97;;;3.60;;
64335;SDS011;50672;53.362;-6.240;2022-12-19T05:11:04;20.67;;;4.03;;
64335;SDS011;50672;53.362;-6.240;2022-12-19T05:13:31;22.73;;;3.80;;
64335;SDS011;50672;53.362;-6.240;2022-12-19T05:16:03;15.83;;;3.87;;
64335;SDS011;50672;53.362;-6.240;2022-12-19T05:18:32;22.63;;;5.17;;
64335;SDS011;50672;53.362;-6.240;2022-12-19T05:20:59;21.90;;;4.63;;
64335;SDS011;50672;53.362;-6.240;2022-12-19T05:23:26;23.73;;;4.90;;
64335;SDS011;50672;53.362;-6.240;2022-12-19T05:25:57;19.30;;;4.23;;
64335;SDS011;50672;53.362;-6.240;2022-12-19T05:28:25;24.83;;;5.10;;
64335;SDS011;50672;53.362;-6.240;2022-12-19T05:30:51;26.83;;;5.60;;
64335;SDS011;50672;53.362;-6.240;2022-12-19T05:33:28;23.00;;;4.87;;
64335;SDS011;50672;53.362;-6.240;2022-12-19T05:35:55;20.27;;;5.93;;
64335;SDS011;50672;53.362;-6.240;2022-12-19T05:38:22;22.50;;;5.73;;
64335;SDS011;50672;53.362;-6.240;2022-12-19T05:40:49;22.90;;;5.57;;
64335;SDS011;50672;53.362;-6.240;2022-12-19T05:43:15;21.03;;;5.37;;
64335;SDS011;50672;53.362;-6.240;2022-12-19T05:45:42;19.53;;;4.27;;
64335;SDS011;50672;53.362;-6.240;2022-12-19T05:48:09;25.40;;;5.37;;
64335;SDS011;50672;53.362;-6.240;2022-12-19T05:50:36;22.47;;;4.27;;
64335;SDS011;50672;53.362;-6.240;2022-12-19T05:53:02;19.30;;;4.20;;
64335;SDS011;50672;53.362;-6.240;2022-12-19T05:55:29;20.70;;;4.83;;
64335;SDS011;50672;53.362;-6.240;2022-12-19T05:57:56;27.17;;;7.07;;
64335;SDS011;50672;53.362;-6.240;2022-12-19T06:00:23;20.80;;;6.57;;
64335;SDS011;50672;53.362;-6.240;2022-12-19T06:02:51;26.50;;;6.20;;
64335;SDS011;50672;53.362;-6.240;2022-12-19T06:05:20;25.63;;;5.93;;
64335;SDS011;50672;53.362;-6.240;2022-12-19T06:07:46;19.30;;;5.77;;
64335;SDS011;50672;53.362;-6.240;2022-12-19T06:10:13;15.70;;;4.23;;
64335;SDS011;50672;53.362;-6.240;2022-12-19T06:12:40;21.73;;;4.70;;
64335;SDS011;50672;53.362;-6.240;2022-12-19T06:15:07;19.93;;;4.27;;
64335;SDS011;50672;53.362;-6.240;2022-12-19T06:17:34;16.73;;;4.73;;
64335;SDS011;50672;53.362;-6.240;2022-12-19T06:20:01;20.33;;;4.60;;
64335;SDS011;50672;53.362;-6.240;2022-12-19T06:22:27;27.23;;;4.80;;
64335;SDS011;50672;53.362;-6.240;2022-12-19T06:24:54;25.10;;;4.43;;
64335;SDS011;50672;53.362;-6.240;2022-12-19T06:27:21;18.87;;;3.83;;
64335;SDS011;50672;53.362;-6.240;2022-12-19T06:29:47;21.20;;;3.43;;
64335;SDS011;50672;53.362;-6.240;2022-12-19T06:32:14;17.53;;;4.37;;
64335;SDS011;50672;53.362;-6.240;2022-12-19T06:34:41;22.30;;;3.70;;
64335;SDS011;50672;53.362;-6.240;2022-12-19T06:37:28;19.33;;;3.60;;
64335;SDS011;50672;53.362;-6.240;2022-12-19T06:39:55;14.60;;;3.10;;
64335;SDS011;50672;53.362;-6.240;2022-12-19T06:42:21;17.90;;;3.93;;
64335;SDS011;50672;53.362;-6.240;2022-12-19T06:44:51;20.00;;;4.50;;
64335;SDS011;50672;53.362;-6.240;2022-12-19T06:47:21;16.73;;;4.30;;
64335;SDS011;50672;53.362;-6.240;2022-12-19T06:49:48;15.80;;;3.97;;
64335;SDS011;50672;53.362;-6.240;2022-12-19T06:52:16;19.77;;;3.83;;
64335;SDS011;50672;53.362;-6.240;2022-12-19T06:54:43;16.30;;;4.27;;
64335;SDS011;50672;53.362;-6.240;2022-12-19T06:57:10;19.80;;;3.67;;
64335;SDS011;50672;53.362;-6.240;2022-12-19T06:59:37;16.37;;;3.87;;
64335;SDS011;50672;53.362;-6.240;2022-12-19T07:02:16;15.77;;;3.30;;
64335;SDS011;50672;53.362;-6.240;2022-12-19T07:04:58;14.77;;;4.43;;
64335;SDS011;50672;53.362;-6.240;2022-12-19T07:07:28;15.37;;;3.30;;
64335;SDS011;50672;53.362;-6.240;2022-12-19T07:09:55;12.37;;;2.73;;
64335;SDS011;50672;53.362;-6.240;2022-12-19T07:12:22;16.03;;;4.60;;
64335;SDS011;50672;53.362;-6.240;2022-12-19T07:14:49;13.47;;;4.00;;
64335;SDS011;50672;53.362;-6.240;2022-12-19T07:17:19;16.97;;;3.53;;
64335;SDS011;50672;53.362;-6.240;2022-12-19T07:19:47;10.87;;;3.57;;
64335;SDS011;50672;53.362;-6.240;2022-12-19T07:22:14;20.93;;;4.37;;
64335;SDS011;50672;53.362;-6.240;2022-12-19T07:24:41;16.53;;;2.80;;
64335;SDS011;50672;53.362;-6.240;2022-12-19T07:27:08;15.20;;;3.50;;
64335;SDS011;50672;53.362;-6.240;2022-12-19T07:29:34;15.03;;;2.93;;
64335;SDS011;50672;53.362;-6.240;2022-12-19T07:32:01;12.23;;;3.20;;
64335;SDS011;50672;53.362;-6.240;2022-12-19T07:34:28;16.03;;;3.20;;
64335;SDS011;50672;53.362;-6.240;2022-12-19T07:36:55;16.97;;;3.10;;
64335;SDS011;50672;53.362;-6.240;2022-12-19T07:39:22;15.93;;;4.07;;
64335;SDS011;50672;53.362;-6.240;2022-12-19T07:41:49;14.10;;;3.50;;
64335;SDS011;50672;53.362;-6.240;2022-12-19T07:44:15;17.57;;;3.90;;
64335;SDS011;50672;53.362;-6.240;2022-12-19T07:46:42;11.83;;;2.30;;
64335;SDS011;50672;53.362;-6.240;2022-12-19T07:49:09;11.90;;;2.33;;
64335;SDS011;50672;53.362;-6.240;2022-12-19T07:51:36;11.87;;;2.20;;
64335;SDS011;50672;53.362;-6.240;2022-12-19T07:54:03;12.10;;;2.30;;
64335;SDS011;50672;53.362;-6.240;2022-12-19T07:56:30;9.43;;;2.27;;
64335;SDS011;50672;53.362;-6.240;2022-12-19T07:58:57;12.33;;;2.53;;
64335;SDS011;50672;53.362;-6.240;2022-12-19T08:01:24;7.40;;;2.20;;
64335;SDS011;50672;53.362;-6.240;2022-12-19T08:03:54;7.73;;;1.80;;
64335;SDS011;50672;53.362;-6.240;2022-12-19T08:06:22;7.30;;;1.00;;
64335;SDS011;50672;53.362;-6.240;2022-12-19T08:08:49;6.53;;;1.30;;
64335;SDS011;50672;53.362;-6.240;2022-12-19T08:11:17;3.63;;;1.20;;
64335;SDS011;50672;53.362;-6.240;2022-12-19T08:13:52;5.07;;;1.50;;
64335;SDS011;50672;53.362;-6.240;2022-12-19T08:16:19;8.10;;;2.57;;
64335;SDS011;50672;53.362;-6.240;2022-12-19T08:18:46;6.77;;;2.30;;
64335;SDS011;50672;53.362;-6.240;2022-12-19T08:21:13;9.67;;;2.30;;
64335;SDS011;50672;53.362;-6.240;2022-12-19T08:23:40;14.20;;;3.63;;
64335;SDS011;50672;53.362;-6.240;2022-12-19T08:26:08;2.60;;;0.80;;
64335;SDS011;50672;53.362;-6.240;2022-12-19T08:28:37;5.90;;;1.10;;
64335;SDS011;50672;53.362;-6.240;2022-12-19T08:31:08;3.07;;;0.90;;
64335;SDS011;50672;53.362;-6.240;2022-12-19T08:33:36;3.58;;;1.10;;
64335;SDS011;50672;53.362;-6.240;2022-12-19T08:36:07;1.80;;;0.93;;
64335;SDS011;50672;53.362;-6.240;2022-12-19T08:38:35;1.77;;;0.85;;
64335;SDS011;50672;53.362;-6.240;2022-12-19T08:41:05;5.20;;;1.53;;
64335;SDS011;50672;53.362;-6.240;2022-12-19T08:43:31;3.70;;;1.43;;
64335;SDS011;50672;53.362;-6.240;2022-12-19T08:45:58;5.17;;;1.70;;
64335;SDS011;50672;53.362;-6.240;2022-12-19T08:48:25;14.67;;;2.63;;
64335;SDS011;50672;53.362;-6.240;2022-12-19T08:53:23;15.47;;;3.30;;
64335;SDS011;50672;53.362;-6.240;2022-12-19T08:55:55;13.97;;;2.97;;
64335;SDS011;50672;53.362;-6.240;2022-12-19T08:58:24;16.37;;;3.40;;
64335;SDS011;50672;53.362;-6.240;2022-12-19T09:00:51;18.03;;;2.80;;
64335;SDS011;50672;53.362;-6.240;2022-12-19T09:03:27;17.53;;;3.50;;
64335;SDS011;50672;53.362;-6.240;2022-12-19T09:06:14;14.33;;;3.80;;
64335;SDS011;50672;53.362;-6.240;2022-12-19T09:08:44;11.50;;;2.03;;
64335;SDS011;50672;53.362;-6.240;2022-12-19T09:11:15;4.63;;;1.17;;
64335;SDS011;50672;53.362;-6.240;2022-12-19T09:13:44;6.70;;;1.23;;
64335;SDS011;50672;53.362;-6.240;2022-12-19T09:16:16;4.50;;;1.63;;
64335;SDS011;50672;53.362;-6.240;2022-12-19T09:18:45;5.57;;;1.83;;
64335;SDS011;50672;53.362;-6.240;2022-12-19T09:21:14;8.03;;;1.40;;
64335;SDS011;50672;53.362;-6.240;2022-12-19T09:23:42;7.57;;;1.63;;
64335;SDS011;50672;53.362;-6.240;2022-12-19T09:26:14;8.48;;;2.20;;
64335;SDS011;50672;53.362;-6.240;2022-12-19T09:28:42;8.57;;;2.03;;
64335;SDS011;50672;53.362;-6.240;2022-12-19T09:31:15;7.67;;;1.70;;
64335;SDS011;50672;53.362;-6.240;2022-12-19T09:33:44;8.57;;;1.90;;
64335;SDS011;50672;53.362;-6.240;2022-12-19T09:36:16;5.27;;;1.30;;
64335;SDS011;50672;53.362;-6.240;2022-12-19T09:47:49;20.00;;;4.13;;
64335;SDS011;50672;53.362;-6.240;2022-12-19T09:49:58;25.23;;;5.83;;
64335;SDS011;50672;53.362;-6.240;2022-12-19T09:52:34;23.93;;;6.20;;
64335;SDS011;50672;53.362;-6.240;2022-12-19T10:01:04;40.27;;;6.80;;
64335;SDS011;50672;53.362;-6.240;2022-12-19T10:03:40;32.60;;;6.97;;
64335;SDS011;50672;53.362;-6.240;2022-12-19T10:06:17;35.30;;;7.50;;
64335;SDS011;50672;53.362;-6.240;2022-12-19T10:09:12;28.03;;;6.33;;
64335;SDS011;50672;53.362;-6.240;2022-12-19T10:18:13;29.55;;;6.05;;
64335;SDS011;50672;53.362;-6.240;2022-12-19T10:20:45;26.80;;;4.63;;
64335;SDS011;50672;53.362;-6.240;2022-12-19T10:26:13;16.20;;;3.10;;
64335;SDS011;50672;53.362;-6.240;2022-12-19T10:36:38;15.00;;;2.97;;
64335;SDS011;50672;53.362;-6.240;2022-12-19T10:39:40;24.40;;;4.13;;
64335;SDS011;50672;53.362;-6.240;2022-12-19T10:42:14;18.23;;;3.17;;
64335;SDS011;50672;53.362;-6.240;2022-12-19T10:44:50;17.70;;;3.40;;
64335;SDS011;50672;53.362;-6.240;2022-12-19T10:47:18;18.90;;;4.37;;
64335;SDS011;50672;53.362;-6.240;2022-12-19T10:49:45;16.47;;;3.87;;
64335;SDS011;50672;53.362;-6.240;2022-12-19T10:52:12;20.17;;;4.13;;
64335;SDS011;50672;53.362;-6.240;2022-12-19T10:54:40;14.80;;;2.80;;
64335;SDS011;50672;53.362;-6.240;2022-12-19T11:00:01;12.90;;;3.33;;
64335;SDS011;50672;53.362;-6.240;2022-12-19T11:05:13;8.80;;;1.93;;
64335;SDS011;50672;53.362;-6.240;2022-12-19T11:08:01;7.88;;;1.83;;
64335;SDS011;50672;53.362;-6.240;2022-12-19T11:16:11;7.17;;;2.20;;
64335;SDS011;50672;53.362;-6.240;2022-12-19T11:18:59;11.93;;;1.97;;
64335;SDS011;50672;53.362;-6.240;2022-12-19T11:21:45;2.97;;;1.20;;
64335;SDS011;50672;53.362;-6.240;2022-12-19T11:24:54;6.23;;;1.30;;
64335;SDS011;50672;53.362;-6.240;2022-12-19T11:27:42;3.23;;;1.00;;
64335;SDS011;50672;53.362;-6.240;2022-12-19T11:30:30;6.87;;;1.53;;
64335;SDS011;50672;53.362;-6.240;2022-12-19T11:33:17;4.90;;;1.47;;
64335;SDS011;50672;53.362;-6.240;2022-12-19T11:35:49;9.40;;;1.00;;
64335;SDS011;50672;53.362;-6.240;2022-12-19T11:38:30;7.88;;;2.10;;
64335;SDS011;50672;53.362;-6.240;2022-12-19T11:41:13;7.70;;;1.47;;
64335;SDS011;50672;53.362;-6.240;2022-12-19T11:46:48;6.70;;;1.50;;
64335;SDS011;50672;53.362;-6.240;2022-12-19T11:55:19;5.27;;;2.00;;
64335;SDS011;50672;53.362;-6.240;2022-12-19T11:57:50;5.53;;;1.30;;
64335;SDS011;50672;53.362;-6.240;2022-12-19T12:00:19;2.43;;;0.90;;
64335;SDS011;50672;53.362;-6.240;2022-12-19T12:06:11;2.67;;;0.90;;
64335;SDS011;50672;53.362;-6.240;2022-12-19T12:08:53;1.10;;;0.70;;
64335;SDS011;50672;53.362;-6.240;2022-12-19T12:11:50;2.27;;;0.60;;
64335;SDS011;50672;53.362;-6.240;2022-12-19T12:17:59;2.60;;;0.73;;
64335;SDS011;50672;53.362;-6.240;2022-12-19T12:30:18;2.80;;;0.97;;
64335;SDS011;50672;53.362;-6.240;2022-12-19T12:35:55;1.17;;;0.93;;
64335;SDS011;50672;53.362;-6.240;2022-12-19T12:44:21;2.30;;;1.10;;
64335;SDS011;50672;53.362;-6.240;2022-12-19T12:47:17;1.77;;;1.10;;
64335;SDS011;50672;53.362;-6.240;2022-12-19T12:52:28;2.67;;;1.47;;
64335;SDS011;50672;53.362;-6.240;2022-12-19T12:54:59;4.60;;;1.47;;
64335;SDS011;50672;53.362;-6.240;2022-12-19T13:03:03;3.73;;;1.90;;
64335;SDS011;50672;53.362;-6.240;2022-12-19T13:05:35;2.90;;;1.20;;
64335;SDS011;50672;53.362;-6.240;2022-12-19T13:08:33;4.87;;;1.60;;
64335;SDS011;50672;53.362;-6.240;2022-12-19T13:17:00;6.30;;;1.40;;
64335;SDS011;50672;53.362;-6.240;2022-12-19T13:19:35;4.33;;;1.17;;
64335;SDS011;50672;53.362;-6.240;2022-12-19T13:24:43;3.03;;;1.20;;
64335;SDS011;50672;53.362;-6.240;2022-12-19T13:32:20;5.67;;;1.10;;
64335;SDS011;50672;53.362;-6.240;2022-12-19T13:34:54;5.10;;;1.20;;
64335;SDS011;50672;53.362;-6.240;2022-12-19T13:37:43;3.57;;;1.30;;
64335;SDS011;50672;53.362;-6.240;2022-12-19T13:43:57;1.70;;;0.80;;
64335;SDS011;50672;53.362;-6.240;2022-12-19T13:46:31;1.37;;;0.70;;
64335;SDS011;50672;53.362;-6.240;2022-12-19T13:49:16;1.23;;;0.70;;
64335;SDS011;50672;53.362;-6.240;2022-12-19T13:51:52;0.87;;;0.70;;
64335;SDS011;50672;53.362;-6.240;2022-12-19T13:54:45;1.73;;;0.60;;
64335;SDS011;50672;53.362;-6.240;2022-12-19T13:57:30;1.97;;;0.80;;
64335;SDS011;50672;53.362;-6.240;2022-12-19T13:59:58;1.47;;;0.60;;
64335;SDS011;50672;53.362;-6.240;2022-12-19T14:02:30;2.50;;;0.93;;
64335;SDS011;50672;53.362;-6.240;2022-12-19T14:05:53;1.08;;;0.70;;
64335;SDS011;50672;53.362;-6.240;2022-12-19T14:08:24;3.57;;;0.80;;
64335;SDS011;50672;53.362;-6.240;2022-12-19T14:10:54;1.73;;;0.70;;
64335;SDS011;50672;53.362;-6.240;2022-12-19T14:14:02;2.40;;;0.70;;
64335;SDS011;50672;53.362;-6.240;2022-12-19T14:16:53;1.90;;;0.87;;
64335;SDS011;50672;53.362;-6.240;2022-12-19T14:19:25;2.53;;;0.80;;
64335;SDS011;50672;53.362;-6.240;2022-12-19T14:28:00;1.23;;;0.50;;
64335;SDS011;50672;53.362;-6.240;2022-12-19T14:30:54;1.57;;;0.70;;
64335;SDS011;50672;53.362;-6.240;2022-12-19T14:33:31;1.67;;;0.80;;
64335;SDS011;50672;53.362;-6.240;2022-12-19T14:36:27;2.10;;;0.50;;
64335;SDS011;50672;53.362;-6.240;2022-12-19T14:38:56;2.40;;;0.90;;
64335;SDS011;50672;53.362;-6.240;2022-12-19T14:41:44;3.40;;;1.17;;
64335;SDS011;50672;53.362;-6.240;2022-12-19T14:50:31;2.40;;;0.73;;
64335;SDS011;50672;53.362;-6.240;2022-12-19T14:53:22;2.20;;;1.37;;
64335;SDS011;50672;53.362;-6.240;2022-12-19T14:56:13;2.27;;;0.97;;
64335;SDS011;50672;53.362;-6.240;2022-12-19T14:59:03;2.00;;;0.93;;
64335;SDS011;50672;53.362;-6.240;2022-12-19T15:01:31;3.90;;;1.00;;
64335;SDS011;50672;53.362;-6.240;2022-12-19T15:04:02;6.03;;;1.83;;
64335;SDS011;50672;53.362;-6.240;2022-12-19T15:06:54;5.43;;;1.60;;
64335;SDS011;50672;53.362;-6.240;2022-12-19T15:15:58;2.57;;;0.90;;
64335;SDS011;50672;53.362;-6.240;2022-12-19T15:21:02;3.13;;;1.00;;
64335;SDS011;50672;53.362;-6.240;2022-12-19T15:26:01;1.93;;;1.07;;
64335;SDS011;50672;53.362;-6.240;2022-12-19T15:28:42;1.60;;;0.90;;
64335;SDS011;50672;53.362;-6.240;2022-12-19T15:36:56;1.83;;;0.90;;
64335;SDS011;50672;53.362;-6.240;2022-12-19T15:39:23;1.60;;;0.80;;
64335;SDS011;50672;53.362;-6.240;2022-12-19T15:41:51;3.53;;;0.97;;
64335;SDS011;50672;53.362;-6.240;2022-12-19T15:44:32;2.17;;;0.93;;
64335;SDS011;50672;53.362;-6.240;2022-12-19T15:47:03;3.83;;;1.00;;
64335;SDS011;50672;53.362;-6.240;2022-12-19T15:49:31;3.47;;;1.00;;
64335;SDS011;50672;53.362;-6.240;2022-12-19T15:52:00;3.10;;;1.00;;
64335;SDS011;50672;53.362;-6.240;2022-12-19T15:54:28;4.77;;;1.20;;
64335;SDS011;50672;53.362;-6.240;2022-12-19T15:57:20;2.47;;;1.00;;
64335;SDS011;50672;53.362;-6.240;2022-12-19T15:59:50;3.37;;;1.10;;
64335;SDS011;50672;53.362;-6.240;2022-12-19T16:02:18;4.70;;;1.10;;
64335;SDS011;50672;53.362;-6.240;2022-12-19T16:04:48;2.53;;;1.20;;
64335;SDS011;50672;53.362;-6.240;2022-12-19T16:07:17;3.33;;;0.80;;
64335;SDS011;50672;53.362;-6.240;2022-12-19T16:09:46;2.10;;;0.90;;
64335;SDS011;50672;53.362;-6.240;2022-12-19T16:12:18;4.07;;;1.33;;
64335;SDS011;50672;53.362;-6.240;2022-12-19T16:14:48;3.63;;;1.23;;
64335;SDS011;50672;53.362;-6.240;2022-12-19T16:17:22;3.43;;;1.03;;
64335;SDS011;50672;53.362;-6.240;2022-12-19T16:19:50;3.43;;;1.13;;
64335;SDS011;50672;53.362;-6.240;2022-12-19T16:22:18;2.50;;;1.40;;
64335;SDS011;50672;53.362;-6.240;2022-12-19T16:24:48;2.83;;;1.30;;
64335;SDS011;50672;53.362;-6.240;2022-12-19T16:27:40;1.80;;;1.00;;
64335;SDS011;50672;53.362;-6.240;2022-12-19T16:30:14;4.27;;;1.20;;
64335;SDS011;50672;53.362;-6.240;2022-12-19T16:32:48;3.13;;;1.43;;
64335;SDS011;50672;53.362;-6.240;2022-12-19T16:35:19;5.17;;;1.63;;
64335;SDS011;50672;53.362;-6.240;2022-12-19T16:38:05;2.33;;;1.30;;
64335;SDS011;50672;53.362;-6.240;2022-12-19T16:40:32;4.77;;;1.67;;
64335;SDS011;50672;53.362;-6.240;2022-12-19T16:43:03;4.10;;;1.53;;
64335;SDS011;50672;53.362;-6.240;2022-12-19T16:45:35;2.73;;;1.20;;
64335;SDS011;50672;53.362;-6.240;2022-12-19T16:48:09;2.60;;;1.10;;
64335;SDS011;50672;53.362;-6.240;2022-12-19T16:50:46;2.40;;;1.20;;
64335;SDS011;50672;53.362;-6.240;2022-12-19T16:53:14;3.37;;;1.17;;
64335;SDS011;50672;53.362;-6.240;2022-12-19T16:55:41;2.07;;;0.90;;
64335;SDS011;50672;53.362;-6.240;2022-12-19T16:58:18;3.60;;;1.00;;
64335;SDS011;50672;53.362;-6.240;2022-12-19T17:00:48;2.20;;;1.10;;
64335;SDS011;50672;53.362;-6.240;2022-12-19T17:06:03;2.97;;;1.07;;
64335;SDS011;50672;53.362;-6.240;2022-12-19T17:08:29;2.97;;;1.23;;
64335;SDS011;50672;53.362;-6.240;2022-12-19T17:10:57;2.53;;;1.50;;
64335;SDS011;50672;53.362;-6.240;2022-12-19T17:13:24;3.60;;;1.50;;
64335;SDS011;50672;53.362;-6.240;2022-12-19T17:15:51;2.57;;;0.97;;
64335;SDS011;50672;53.362;-6.240;2022-12-19T17:18:24;2.10;;;1.00;;
64335;SDS011;50672;53.362;-6.240;2022-12-19T17:20:54;2.83;;;0.70;;
64335;SDS011;50672;53.362;-6.240;2022-12-19T17:23:21;1.93;;;0.87;;
64335;SDS011;50672;53.362;-6.240;2022-12-19T17:25:49;2.77;;;1.00;;
64335;SDS011;50672;53.362;-6.240;2022-12-19T17:28:17;2.00;;;1.30;;
64335;SDS011;50672;53.362;-6.240;2022-12-19T17:30:46;4.20;;;1.60;;
64335;SDS011;50672;53.362;-6.240;2022-12-19T17:33:16;4.32;;;1.60;;
64335;SDS011;50672;53.362;-6.240;2022-12-19T17:35:44;3.30;;;1.40;;
64335;SDS011;50672;53.362;-6.240;2022-12-19T17:38:12;3.10;;;1.93;;
64335;SDS011;50672;53.362;-6.240;2022-12-19T17:40:41;6.60;;;2.10;;
64335;SDS011;50672;53.362;-6.240;2022-12-19T17:43:09;4.27;;;1.50;;
64335;SDS011;50672;53.362;-6.240;2022-12-19T17:45:37;5.40;;;1.83;;
64335;SDS011;50672;53.362;-6.240;2022-12-19T17:48:06;4.23;;;1.63;;
64335;SDS011;50672;53.362;-6.240;2022-12-19T17:50:58;4.40;;;1.10;;